Time;durP1;ratioP1;P1;durP2;ratioP2;P2;SDS_P1;SDS_P2;PMS_P1;PMS_P2;Temp;Humidity;BMP_temperature;BMP_pressure;BME280_temperature;BME280_humidity;BME280_pressure;Samples;Min_cycle;Max_cycle;Signal;HPM_P1;HPM_P2
2023/05/13 00:02:12;;;;;;;4.80;4.40;;;13.70;99.90;;;;;;5072176;28;20729;-73
2023/05/13 00:04:38;;;;;;;4.73;4.33;;;13.70;99.90;;;;;;5072258;28;20536;-74
2023/05/13 00:07:04;;;;;;;5.00;4.50;;;13.70;99.90;;;;;;5071807;28;20190;-73
2023/05/13 00:09:29;;;;;;;6.83;4.87;;;13.70;99.90;;;;;;5072081;28;20408;-73
2023/05/13 00:11:55;;;;;;;5.67;5.13;;;13.80;99.90;;;;;;5072119;28;20575;-74
2023/05/13 00:14:20;;;;;;;6.03;5.07;;;13.80;99.90;;;;;;5071992;28;20579;-73
2023/05/13 00:16:46;;;;;;;6.83;5.53;;;13.80;99.90;;;;;;5071859;28;20224;-74
2023/05/13 00:19:12;;;;;;;6.23;5.63;;;13.80;99.90;;;;;;5071882;28;20158;-74
2023/05/13 00:21:37;;;;;;;4.80;4.30;;;13.90;99.90;;;;;;5072045;28;20223;-74
2023/05/13 00:24:04;;;;;;;7.03;6.33;;;13.90;99.90;;;;;;5071917;28;20467;-73
2023/05/13 00:26:29;;;;;;;5.67;5.07;;;13.90;99.90;;;;;;5071977;28;20221;-73
2023/05/13 00:28:55;;;;;;;5.60;5.03;;;13.90;99.90;;;;;;5071386;28;20812;-73
2023/05/13 00:31:21;;;;;;;5.63;4.93;;;13.90;99.90;;;;;;5054014;28;20239;-73
2023/05/13 00:33:46;;;;;;;9.83;7.60;;;13.90;99.90;;;;;;5071855;28;20162;-73
2023/05/13 00:36:12;;;;;;;8.63;6.70;;;13.90;99.90;;;;;;5053821;28;20232;-73
2023/05/13 00:38:37;;;;;;;7.77;6.80;;;13.80;99.90;;;;;;5071499;28;20158;-73
2023/05/13 00:41:04;;;;;;;8.33;6.80;;;13.80;99.90;;;;;;5053892;28;20212;-73
2023/05/13 00:43:30;;;;;;;10.30;8.37;;;13.80;99.90;;;;;;5072940;28;20158;-74
2023/05/13 00:45:55;;;;;;;8.87;7.93;;;13.80;99.90;;;;;;5057955;28;20412;-73
2023/05/13 00:48:22;;;;;;;12.70;7.80;;;13.80;99.90;;;;;;5075289;28;20209;-73
2023/05/13 00:50:48;;;;;;;9.27;7.50;;;13.70;99.90;;;;;;5075476;28;20205;-74
2023/05/13 00:53:15;;;;;;;10.73;8.40;;;13.70;99.90;;;;;;5075680;28;20532;-74
2023/05/13 00:55:42;;;;;;;9.40;7.67;;;13.60;99.90;;;;;;5075274;28;20494;-74
2023/05/13 00:58:08;;;;;;;10.20;8.37;;;13.60;99.90;;;;;;5075062;28;20864;-73
2023/05/13 01:00:40;;;;;;;10.20;8.33;;;13.50;99.90;;;;;;5075516;28;20432;-73
2023/05/13 01:03:11;;;;;;;11.13;9.43;;;13.40;99.90;;;;;;5075817;28;20163;-74
2023/05/13 01:06:09;;;;;;;11.20;9.63;;;13.40;99.90;;;;;;5075570;28;20431;-73
2023/05/13 01:08:38;;;;;;;10.50;9.40;;;13.30;99.90;;;;;;5057277;28;20448;-74
2023/05/13 01:11:09;;;;;;;11.10;8.60;;;13.20;99.90;;;;;;5075580;28;20415;-73
2023/05/13 01:13:41;;;;;;;16.00;9.90;;;13.20;99.90;;;;;;5075340;28;20835;-73
2023/05/13 01:16:29;;;;;;;11.63;9.47;;;13.20;99.90;;;;;;5057170;28;20539;-74
2023/05/13 01:19:00;;;;;;;10.50;9.40;;;13.20;99.90;;;;;;5074843;28;20397;-74
2023/05/13 01:21:27;;;;;;;11.50;9.57;;;13.20;99.90;;;;;;5075316;28;20400;-74
2023/05/13 01:23:52;;;;;;;14.00;10.13;;;13.20;99.90;;;;;;5075190;28;20890;-73
2023/05/13 01:26:19;;;;;;;10.10;8.47;;;13.20;99.90;;;;;;5075066;28;20424;-74
2023/05/13 01:28:45;;;;;;;11.97;9.70;;;13.20;99.90;;;;;;5074767;28;20175;-73
2023/05/13 01:31:12;;;;;;;21.47;9.43;;;13.20;99.90;;;;;;5074994;28;20404;-74
2023/05/13 01:33:39;;;;;;;10.57;9.00;;;13.20;99.90;;;;;;5075024;28;20170;-74
2023/05/13 01:36:06;;;;;;;14.10;10.10;;;13.30;99.90;;;;;;5074740;28;20475;-73
2023/05/13 01:38:34;;;;;;;10.03;8.40;;;13.30;99.90;;;;;;5074562;28;20483;-74
2023/05/13 01:41:00;;;;;;;14.53;11.27;;;13.30;99.90;;;;;;5074825;28;20408;-73
2023/05/13 01:43:25;;;;;;;14.63;10.10;;;13.30;99.90;;;;;;5074802;28;21030;-73
2023/05/13 01:45:51;;;;;;;16.23;12.50;;;13.30;99.90;;;;;;5074628;28;20247;-74
2023/05/13 01:48:17;;;;;;;13.33;11.13;;;13.30;99.90;;;;;;5074387;28;20249;-73
2023/05/13 01:50:43;;;;;;;11.27;10.13;;;13.30;99.90;;;;;;5056674;28;20170;-74
2023/05/13 01:53:09;;;;;;;12.20;10.30;;;13.40;99.90;;;;;;5074673;28;20412;-74
2023/05/13 01:55:34;;;;;;;15.17;11.43;;;13.40;99.90;;;;;;5073409;28;20201;-74
2023/05/13 01:58:00;;;;;;;15.43;11.60;;;13.40;99.90;;;;;;5074243;28;20690;-73
2023/05/13 02:00:25;;;;;;;18.00;11.50;;;13.40;99.90;;;;;;5074772;28;20174;-73
2023/05/13 02:02:51;;;;;;;14.37;10.40;;;13.30;99.90;;;;;;5074444;28;20249;-73
2023/05/13 02:05:16;;;;;;;16.93;12.10;;;13.30;99.90;;;;;;5074417;28;20260;-73
2023/05/13 02:07:42;;;;;;;13.33;10.87;;;13.20;99.90;;;;;;5056105;28;20285;-73
2023/05/13 02:10:08;;;;;;;13.70;11.40;;;13.20;99.90;;;;;;5056461;28;20190;-73
2023/05/13 02:12:34;;;;;;;14.70;11.03;;;13.10;99.90;;;;;;5056045;28;20557;-73
2023/05/13 02:14:59;;;;;;;17.20;11.63;;;13.00;99.90;;;;;;5073931;28;20421;-73
2023/05/13 02:17:25;;;;;;;14.03;12.53;;;13.00;99.90;;;;;;5073515;28;20186;-74
2023/05/13 02:19:51;;;;;;;18.80;12.60;;;12.90;99.90;;;;;;5074102;28;20163;-73
2023/05/13 02:22:16;;;;;;;19.43;12.90;;;12.90;99.90;;;;;;5074201;28;20166;-73
2023/05/13 02:24:42;;;;;;;16.43;12.47;;;12.80;99.90;;;;;;5074090;28;20158;-73
2023/05/13 02:27:07;;;;;;;14.10;10.83;;;12.80;99.90;;;;;;5073335;28;20212;-73
2023/05/13 02:29:33;;;;;;;14.87;11.40;;;12.70;99.90;;;;;;5056097;28;20189;-74
2023/05/13 02:31:59;;;;;;;15.13;11.67;;;12.70;99.90;;;;;;5055834;28;20174;-73
2023/05/13 02:34:24;;;;;;;15.90;11.57;;;12.70;99.90;;;;;;5073828;28;20662;-74
2023/05/13 02:36:51;;;;;;;17.60;11.53;;;12.60;99.90;;;;;;5073326;28;20601;-74
2023/05/13 02:39:16;;;;;;;14.70;12.50;;;12.60;99.90;;;;;;5055743;28;20223;-74
2023/05/13 02:41:43;;;;;;;13.53;11.20;;;12.60;99.90;;;;;;5073835;28;20818;-73
2023/05/13 02:44:09;;;;;;;16.00;11.07;;;12.50;99.90;;;;;;5073709;28;20220;-74
2023/05/13 02:46:35;;;;;;;15.13;11.07;;;12.50;99.90;;;;;;5073425;28;20440;-74
2023/05/13 02:49:01;;;;;;;12.93;9.93;;;12.50;99.90;;;;;;5073281;28;20419;-74
2023/05/13 02:51:26;;;;;;;15.90;11.00;;;12.50;99.90;;;;;;5073629;28;20412;-74
2023/05/13 02:53:52;;;;;;;12.27;10.37;;;12.50;99.90;;;;;;5073440;28;20170;-74
2023/05/13 02:56:18;;;;;;;14.00;10.33;;;12.60;99.90;;;;;;5073290;28;20559;-73
2023/05/13 02:58:43;;;;;;;12.63;9.83;;;12.50;99.90;;;;;;5073022;28;20176;-74
2023/05/13 03:01:09;;;;;;;13.33;11.30;;;12.50;99.90;;;;;;5055330;28;20404;-73
2023/05/13 03:03:35;;;;;;;11.37;9.80;;;12.50;99.90;;;;;;5073256;28;20654;-73
2023/05/13 03:06:00;;;;;;;13.47;11.23;;;12.50;99.90;;;;;;5072947;28;20409;-73
2023/05/13 03:08:26;;;;;;;12.47;10.23;;;12.40;99.90;;;;;;5072781;28;20177;-73
2023/05/13 03:10:52;;;;;;;11.87;10.20;;;12.40;99.90;;;;;;5073039;28;20179;-74
2023/05/13 03:13:17;;;;;;;12.70;9.87;;;12.40;99.90;;;;;;5073063;28;20181;-74
2023/05/13 03:15:43;;;;;;;12.73;10.73;;;12.40;99.90;;;;;;5073130;28;20244;-73
2023/05/13 03:18:08;;;;;;;10.10;9.00;;;12.30;99.90;;;;;;5072687;28;20217;-74
2023/05/13 03:20:34;;;;;;;14.07;10.00;;;12.30;99.90;;;;;;5072993;28;20178;-73
2023/05/13 03:22:59;;;;;;;11.20;9.80;;;12.30;99.90;;;;;;5072929;28;20216;-74
2023/05/13 03:25:25;;;;;;;15.30;10.03;;;12.30;99.90;;;;;;5055014;28;20174;-74
2023/05/13 03:27:50;;;;;;;13.50;10.07;;;12.20;99.90;;;;;;5072442;28;20675;-74
2023/05/13 03:30:16;;;;;;;14.23;11.57;;;12.20;99.90;;;;;;5072828;28;20170;-73
2023/05/13 03:32:41;;;;;;;12.13;9.80;;;12.20;99.90;;;;;;5072760;28;20251;-73
2023/05/13 03:35:07;;;;;;;10.20;9.20;;;12.20;99.90;;;;;;5072492;28;20174;-73
2023/05/13 03:37:33;;;;;;;14.10;11.40;;;12.20;99.90;;;;;;5072303;28;20186;-72
2023/05/13 03:39:58;;;;;;;11.57;10.37;;;12.20;99.90;;;;;;5072557;28;20170;-72
2023/05/13 03:42:25;;;;;;;14.90;11.10;;;12.10;99.90;;;;;;5054673;28;20657;-72
2023/05/13 03:44:50;;;;;;;12.80;11.00;;;12.10;99.90;;;;;;5072435;28;20236;-72
2023/05/13 03:47:16;;;;;;;13.00;10.20;;;12.10;99.90;;;;;;5072129;28;20424;-72
2023/05/13 03:49:41;;;;;;;15.57;9.93;;;12.00;99.90;;;;;;5072406;28;20166;-72
2023/05/13 03:52:07;;;;;;;13.60;10.60;;;12.00;99.90;;;;;;5072452;28;20232;-72
2023/05/13 03:54:33;;;;;;;12.47;10.33;;;12.00;99.90;;;;;;5072361;28;20174;-72
2023/05/13 03:56:59;;;;;;;16.03;13.50;;;11.90;99.90;;;;;;5071954;28;20606;-72
2023/05/13 03:59:24;;;;;;;20.50;13.73;;;11.90;99.90;;;;;;5072297;28;20408;-72
2023/05/13 04:01:50;;;;;;;13.53;11.27;;;11.90;99.90;;;;;;5072091;28;20405;-72
2023/05/13 04:04:15;;;;;;;12.80;10.27;;;11.90;99.90;;;;;;5072164;28;20226;-73
2023/05/13 04:06:41;;;;;;;10.77;9.67;;;11.90;99.90;;;;;;5072170;28;20201;-74
2023/05/13 04:09:06;;;;;;;17.07;11.57;;;11.90;99.90;;;;;;5071930;28;20166;-73
2023/05/13 04:11:32;;;;;;;12.13;10.93;;;11.90;99.90;;;;;;5054260;28;20177;-73
2023/05/13 04:13:58;;;;;;;14.00;11.30;;;11.90;99.90;;;;;;5071996;28;20186;-73
2023/05/13 04:16:24;;;;;;;13.30;10.23;;;11.90;99.90;;;;;;5053580;28;20291;-73
2023/05/13 04:18:50;;;;;;;14.43;10.47;;;11.90;99.90;;;;;;5070868;28;20158;-73
2023/05/13 04:21:15;;;;;;;11.37;9.70;;;11.90;99.90;;;;;;5071371;28;20420;-73
2023/05/13 04:23:41;;;;;;;13.47;10.07;;;11.90;99.90;;;;;;5072045;28;20192;-73
2023/05/13 04:26:07;;;;;;;10.63;9.20;;;11.90;99.90;;;;;;5071825;28;20227;-73
2023/05/13 04:28:33;;;;;;;11.80;9.03;;;11.90;99.90;;;;;;5071653;28;20204;-71
2023/05/13 04:30:59;;;;;;;13.03;10.27;;;12.00;99.90;;;;;;5071880;28;20400;-71
2023/05/13 04:33:25;;;;;;;13.30;11.20;;;12.00;99.90;;;;;;5071960;28;20914;-70
2023/05/13 04:35:51;;;;;;;10.23;9.20;;;12.00;99.90;;;;;;5071705;28;20521;-71
2023/05/13 04:38:16;;;;;;;10.70;9.70;;;12.10;99.90;;;;;;5071594;28;20404;-71
2023/05/13 04:40:43;;;;;;;12.43;10.13;;;12.20;99.90;;;;;;5071857;28;20215;-71
2023/05/13 04:43:10;;;;;;;14.90;11.30;;;12.30;99.90;;;;;;5072068;28;20639;-71
2023/05/13 04:45:35;;;;;;;13.30;10.20;;;12.30;99.90;;;;;;5071711;28;20494;-71
2023/05/13 04:48:01;;;;;;;14.57;11.47;;;12.50;99.90;;;;;;5071408;28;20515;-71
2023/05/13 04:50:27;;;;;;;11.70;10.27;;;12.60;99.90;;;;;;5071778;28;20190;-71
2023/05/13 04:52:53;;;;;;;13.87;10.77;;;12.80;99.90;;;;;;5071731;28;20173;-71
2023/05/13 04:55:19;;;;;;;13.43;10.60;;;13.00;99.90;;;;;;5071630;28;20914;-71
2023/05/13 04:57:44;;;;;;;9.13;8.20;;;13.10;99.90;;;;;;5071378;28;20435;-70
2023/05/13 05:00:11;;;;;;;14.10;10.13;;;13.30;99.90;;;;;;5071554;28;20170;-72
2023/05/13 05:02:36;;;;;;;10.93;9.83;;;13.40;99.90;;;;;;5071575;28;20249;-72
2023/05/13 05:05:02;;;;;;;12.97;10.40;;;13.60;99.90;;;;;;5071757;28;20428;-72
2023/05/13 05:07:28;;;;;;;11.83;9.87;;;13.70;99.90;;;;;;5071104;28;20552;-72
2023/05/13 05:09:53;;;;;;;12.50;11.23;;;13.90;99.90;;;;;;5071770;28;20448;-72
2023/05/13 05:12:19;;;;;;;11.73;9.77;;;14.00;99.90;;;;;;5071474;28;20562;-72
2023/05/13 05:14:44;;;;;;;11.73;9.67;;;14.30;99.90;;;;;;5071592;28;20229;-70
2023/05/13 05:17:10;;;;;;;18.37;10.73;;;14.50;99.90;;;;;;5052977;28;20880;-70
2023/05/13 05:19:35;;;;;;;13.83;11.17;;;14.70;99.90;;;;;;5071559;28;20162;-70
2023/05/13 05:22:01;;;;;;;11.03;9.93;;;15.10;99.90;;;;;;5071394;28;20170;-70
2023/05/13 05:24:27;;;;;;;14.23;10.67;;;15.40;99.90;;;;;;5071564;28;20166;-72
2023/05/13 05:26:53;;;;;;;11.47;10.27;;;15.60;99.90;;;;;;5071130;28;20198;-72
2023/05/13 05:29:18;;;;;;;12.90;10.77;;;15.90;99.90;;;;;;5072193;28;20890;-71
2023/05/13 05:31:44;;;;;;;9.87;8.87;;;16.30;99.90;;;;;;5075014;28;20166;-70
2023/05/13 05:34:10;;;;;;;9.73;8.33;;;16.70;99.90;;;;;;5075137;28;20635;-72
2023/05/13 05:36:36;;;;;;;11.67;9.97;;;17.30;99.90;;;;;;5056885;28;20698;-72
2023/05/13 05:39:02;;;;;;;11.30;8.73;;;17.90;99.90;;;;;;5074790;28;20400;-72
2023/05/13 05:41:27;;;;;;;11.17;8.17;;;18.60;99.90;;;;;;5074931;28;20154;-72
2023/05/13 05:43:53;;;;;;;8.40;6.97;;;19.30;99.90;;;;;;5074937;28;20166;-71
2023/05/13 05:46:18;;;;;;;9.43;8.47;;;20.00;99.90;;;;;;5074792;28;20274;-71
2023/05/13 05:48:44;;;;;;;11.40;7.17;;;20.70;99.90;;;;;;5074586;28;20172;-71
2023/05/13 05:51:09;;;;;;;9.00;7.73;;;21.50;99.90;;;;;;5074751;28;20216;-71
2023/05/13 05:53:39;;;;;;;11.77;7.60;;;22.30;99.90;;;;;;5074676;28;20683;-71
2023/05/13 05:56:05;;;;;;;9.27;7.07;;;23.00;99.90;;;;;;5074498;28;20198;-72
2023/05/13 05:58:31;;;;;;;8.20;7.33;;;23.80;99.90;;;;;;5074321;28;21170;-71
2023/05/13 06:00:57;;;;;;;7.80;7.03;;;24.60;99.90;;;;;;5074561;28;20235;-71
2023/05/13 06:03:23;;;;;;;9.50;6.13;;;25.20;98.60;;;;;;5074475;28;20165;-71
2023/05/13 06:05:48;;;;;;;8.63;6.60;;;25.90;92.30;;;;;;5074541;28;20506;-68
2023/05/13 06:08:14;;;;;;;7.27;6.67;;;26.50;87.70;;;;;;5074007;28;20201;-68
2023/05/13 06:10:39;;;;;;;7.70;6.90;;;27.20;82.50;;;;;;5056313;28;20537;-68
2023/05/13 06:13:05;;;;;;;6.73;5.97;;;27.80;75.60;;;;;;5074073;28;20162;-68
2023/05/13 06:15:31;;;;;;;11.20;7.37;;;28.20;70.50;;;;;;5074101;28;20190;-68
2023/05/13 06:17:56;;;;;;;9.50;7.37;;;28.40;66.20;;;;;;5073910;28;20185;-68
2023/05/13 06:20:22;;;;;;;7.13;6.37;;;28.10;62.30;;;;;;5074268;28;20635;-68
2023/05/13 06:22:48;;;;;;;7.03;5.80;;;27.80;62.90;;;;;;5074048;28;20194;-71
2023/05/13 06:25:13;;;;;;;8.23;7.20;;;27.60;62.90;;;;;;5055728;28;20170;-70
2023/05/13 06:27:39;;;;;;;7.10;6.50;;;27.40;61.50;;;;;;5073802;28;20197;-71
2023/05/13 06:30:05;;;;;;;6.67;5.97;;;27.40;62.60;;;;;;5074065;28;20227;-72
2023/05/13 06:32:31;;;;;;;7.10;6.50;;;27.40;61.90;;;;;;5074017;28;20249;-72
2023/05/13 06:34:56;;;;;;;6.47;5.87;;;27.50;62.00;;;;;;5073893;28;20433;-71
2023/05/13 06:37:22;;;;;;;8.83;6.40;;;27.60;60.80;;;;;;5073248;28;20205;-72
2023/05/13 06:39:47;;;;;;;6.90;6.30;;;28.10;61.10;;;;;;5073904;28;20659;-72
2023/05/13 06:42:13;;;;;;;7.23;6.50;;;29.20;60.60;;;;;;5073188;28;20166;-72
2023/05/13 06:44:38;;;;;;;6.60;5.63;;;30.00;56.20;;;;;;5073613;28;20158;-72
2023/05/13 06:47:04;;;;;;;6.47;5.87;;;30.10;54.80;;;;;;5073292;28;20240;-72
2023/05/13 06:49:32;;;;;;;5.70;5.30;;;30.40;54.40;;;;;;5073620;28;20163;-68
2023/05/13 06:51:57;;;;;;;6.17;5.67;;;30.80;53.70;;;;;;5055764;28;20411;-68
2023/05/13 06:54:25;;;;;;;6.47;5.80;;;31.40;52.40;;;;;;5073437;28;20405;-69
2023/05/13 06:56:51;;;;;;;5.13;4.63;;;32.20;51.80;;;;;;5073235;28;20209;-68
2023/05/13 06:59:16;;;;;;;6.93;6.23;;;33.00;49.50;;;;;;5073090;28;20404;-68
2023/05/13 07:01:42;;;;;;;5.57;4.90;;;33.70;47.90;;;;;;5073397;28;20166;-68
2023/05/13 07:04:07;;;;;;;6.23;5.63;;;34.50;47.40;;;;;;5073127;28;20643;-69
2023/05/13 07:06:33;;;;;;;7.00;6.30;;;35.40;44.90;;;;;;5073145;28;20570;-68
2023/05/13 07:08:58;;;;;;;6.77;6.17;;;36.00;42.00;;;;;;5072882;28;20860;-69
2023/05/13 07:11:24;;;;;;;5.50;5.10;;;35.90;41.00;;;;;;5073119;28;20577;-67
2023/05/13 07:13:49;;;;;;;6.33;5.80;;;35.30;40.70;;;;;;5073003;28;20209;-67
2023/05/13 07:16:16;;;;;;;6.40;5.80;;;34.40;41.00;;;;;;5072925;28;20220;-67
2023/05/13 07:18:42;;;;;;;6.30;5.70;;;34.00;42.20;;;;;;5072839;28;20245;-66
2023/05/13 07:21:07;;;;;;;5.70;5.20;;;34.30;42.70;;;;;;5072971;28;20492;-67
2023/05/13 07:23:34;;;;;;;7.03;6.07;;;35.30;42.70;;;;;;5054999;28;20174;-67
2023/05/13 07:26:00;;;;;;;5.20;4.73;;;36.50;41.60;;;;;;5072938;28;20162;-67
2023/05/13 07:28:26;;;;;;;5.27;4.77;;;37.80;40.40;;;;;;5072539;28;20933;-67
2023/05/13 07:30:52;;;;;;;4.90;4.50;;;39.00;39.00;;;;;;5072561;28;20166;-67
2023/05/13 07:33:18;;;;;;;5.53;5.00;;;40.10;37.00;;;;;;5072756;28;20811;-67
2023/05/13 07:35:44;;;;;;;5.40;4.90;;;41.00;35.80;;;;;;5072500;28;20451;-67
2023/05/13 07:38:10;;;;;;;6.07;5.47;;;41.80;34.70;;;;;;5072211;28;20474;-67
2023/05/13 07:40:36;;;;;;;5.60;5.10;;;42.50;33.40;;;;;;5072626;28;20270;-68
2023/05/13 07:43:01;;;;;;;4.83;4.53;;;43.10;31.90;;;;;;5072607;28;20462;-68
2023/05/13 07:45:27;;;;;;;5.37;4.97;;;43.70;31.20;;;;;;5072599;28;20166;-68
2023/05/13 07:47:52;;;;;;;5.70;5.27;;;44.20;30.50;;;;;;5072079;28;20659;-68
2023/05/13 07:50:18;;;;;;;5.63;5.13;;;44.70;30.00;;;;;;5072487;28;20158;-68
2023/05/13 07:52:47;;;;;;;5.20;4.80;;;45.00;29.70;;;;;;5071593;28;20546;-68
2023/05/13 07:55:13;;;;;;;5.07;4.77;;;45.30;28.90;;;;;;5072335;28;20654;-68
2023/05/13 07:57:39;;;;;;;5.07;4.67;;;45.60;28.60;;;;;;5071987;28;20797;-68
2023/05/13 08:00:05;;;;;;;4.73;4.43;;;46.00;28.60;;;;;;5072229;28;20396;-68
2023/05/13 08:02:33;;;;;;;5.43;4.73;;;46.40;28.20;;;;;;5071918;28;20162;-68
2023/05/13 08:04:59;;;;;;;5.30;4.90;;;46.80;27.60;;;;;;5072073;28;20401;-68
2023/05/13 08:07:24;;;;;;;6.17;5.73;;;47.20;27.70;;;;;;5071747;28;20515;-68
2023/05/13 08:09:50;;;;;;;4.80;4.50;;;47.70;27.20;;;;;;5072211;28;20170;-68
2023/05/13 08:12:15;;;;;;;5.03;4.53;;;47.90;26.70;;;;;;5072075;28;20199;-67
2023/05/13 08:14:41;;;;;;;5.20;4.70;;;46.70;26.20;;;;;;5072028;28;20257;-68
2023/05/13 08:17:07;;;;;;;5.23;4.87;;;45.00;26.70;;;;;;5071674;28;20202;-67
2023/05/13 08:19:32;;;;;;;5.50;5.10;;;43.10;27.50;;;;;;5072067;28;20527;-67
2023/05/13 08:21:58;;;;;;;6.40;5.90;;;41.00;28.30;;;;;;5071888;28;20216;-67
2023/05/13 08:24:23;;;;;;;5.00;4.53;;;39.10;29.20;;;;;;5071899;28;20249;-67
2023/05/13 08:26:49;;;;;;;5.67;5.27;;;37.60;30.40;;;;;;5071640;28;20186;-67
2023/05/13 08:29:14;;;;;;;5.37;4.97;;;36.20;32.00;;;;;;5071854;28;20201;-67
2023/05/13 08:31:41;;;;;;;5.90;5.30;;;35.20;33.40;;;;;;5071910;28;20197;-67
2023/05/13 08:34:06;;;;;;;6.03;5.53;;;34.10;34.20;;;;;;5071738;28;20172;-67
2023/05/13 08:36:32;;;;;;;7.23;5.70;;;33.20;35.50;;;;;;5070928;28;20521;-67
2023/05/13 08:38:58;;;;;;;5.53;5.13;;;32.10;36.40;;;;;;5071566;28;20166;-67
2023/05/13 08:41:23;;;;;;;5.23;4.77;;;31.10;37.80;;;;;;5071695;28;20396;-67
2023/05/13 08:43:52;;;;;;;5.03;4.60;;;30.30;39.40;;;;;;5071854;28;20237;-67
2023/05/13 08:46:19;;;;;;;7.90;5.70;;;29.60;40.70;;;;;;5071850;28;20182;-69
2023/05/13 08:48:45;;;;;;;5.70;5.20;;;29.40;42.60;;;;;;5071560;28;20411;-67
2023/05/13 08:51:11;;;;;;;5.43;4.93;;;30.40;44.40;;;;;;5071838;28;20436;-67
2023/05/13 08:53:39;;;;;;;5.27;4.80;;;32.30;42.80;;;;;;5071923;28;20413;-68
2023/05/13 08:56:07;;;;;;;6.80;6.10;;;34.00;40.20;;;;;;5071497;28;20440;-68
2023/05/13 08:58:32;;;;;;;5.00;4.60;;;34.90;38.40;;;;;;5071420;28;20967;-67
2023/05/13 09:00:58;;;;;;;5.60;4.37;;;35.90;37.00;;;;;;5071942;28;20429;-68
2023/05/13 09:03:26;;;;;;;5.00;4.70;;;37.50;36.20;;;;;;5071692;28;20200;-68
2023/05/13 09:05:52;;;;;;;5.00;4.60;;;39.90;34.70;;;;;;5074949;28;20172;-68
2023/05/13 09:08:17;;;;;;;4.70;4.40;;;42.20;32.70;;;;;;5075349;28;20769;-68
2023/05/13 09:10:43;;;;;;;6.20;5.70;;;44.20;30.30;;;;;;5075456;28;20601;-68
2023/05/13 09:13:11;;;;;;;5.43;5.03;;;46.20;28.90;;;;;;5075406;28;20198;-69
2023/05/13 09:15:41;;;;;;;4.90;4.50;;;47.60;27.70;;;;;;5075494;28;20182;-69
2023/05/13 09:18:06;;;;;;;4.90;4.50;;;49.00;26.30;;;;;;5075078;28;20413;-69
2023/05/13 09:20:33;;;;;;;4.97;4.67;;;50.00;25.40;;;;;;5057444;28;20415;-68
2023/05/13 09:23:04;;;;;;;4.30;4.00;;;50.90;25.40;;;;;;5075231;28;20166;-68
2023/05/13 09:25:30;;;;;;;5.03;4.60;;;51.80;25.00;;;;;;5075200;28;20408;-68
2023/05/13 09:27:58;;;;;;;4.40;4.10;;;52.30;24.20;;;;;;5074912;28;20406;-68
2023/05/13 09:30:25;;;;;;;4.83;4.43;;;52.80;23.80;;;;;;5075203;28;20920;-68
2023/05/13 09:33:14;;;;;;;4.93;4.63;;;53.30;23.70;;;;;;5075077;28;20471;-68
2023/05/13 09:35:53;;;;;;;5.37;4.87;;;53.80;23.40;;;;;;5074982;28;20444;-69
2023/05/13 09:38:25;;;;;;;5.40;5.00;;;54.10;23.10;;;;;;5074820;28;20921;-68
2023/05/13 09:40:51;;;;;;;5.97;5.57;;;54.50;23.00;;;;;;5074973;28;20487;-69
2023/05/13 09:43:18;;;;;;;5.57;4.90;;;54.80;22.60;;;;;;5056901;28;20442;-68
2023/05/13 09:45:44;;;;;;;5.67;5.27;;;54.90;22.80;;;;;;5074525;28;20169;-69
2023/05/13 09:48:10;;;;;;;5.63;5.13;;;54.90;22.40;;;;;;5074620;28;20420;-69
2023/05/13 09:50:46;;;;;;;5.53;5.23;;;54.90;22.30;;;;;;5074782;28;20190;-68
2023/05/13 09:53:12;;;;;;;5.60;5.20;;;54.90;22.30;;;;;;5074795;28;20405;-69
2023/05/13 09:55:42;;;;;;;8.10;7.50;;;55.10;22.50;;;;;;5074553;28;20801;-69
2023/05/13 09:58:11;;;;;;;5.50;5.17;;;55.20;22.00;;;;;;5074334;28;20193;-69
2023/05/13 10:00:40;;;;;;;5.60;5.30;;;55.20;21.70;;;;;;5074350;28;20808;-69
2023/05/13 10:03:06;;;;;;;5.17;4.80;;;55.30;21.80;;;;;;5074537;28;20412;-68
2023/05/13 10:05:32;;;;;;;5.47;5.10;;;55.40;21.90;;;;;;5074418;28;20404;-69
2023/05/13 10:08:00;;;;;;;5.50;5.00;;;55.50;21.40;;;;;;5074017;28;20482;-68
2023/05/13 10:10:29;;;;;;;5.70;5.30;;;55.30;21.80;;;;;;5074418;28;20404;-69
2023/05/13 10:13:02;;;;;;;5.27;4.87;;;55.30;21.80;;;;;;5074233;28;20408;-68
2023/05/13 10:15:28;;;;;;;4.93;4.67;;;55.30;21.30;;;;;;5073919;28;20484;-68
2023/05/13 10:17:54;;;;;;;5.47;5.17;;;55.50;21.50;;;;;;5055518;28;20472;-69
2023/05/13 10:20:21;;;;;;;5.27;4.90;;;55.60;21.30;;;;;;5074227;28;20412;-68
2023/05/13 10:22:49;;;;;;;5.33;5.03;;;55.70;21.00;;;;;;5074093;28;20408;-69
2023/05/13 10:25:15;;;;;;;5.90;5.50;;;55.90;21.30;;;;;;5074047;28;20400;-69
2023/05/13 10:27:42;;;;;;;5.50;5.10;;;56.10;21.20;;;;;;5073754;28;20437;-68
2023/05/13 10:30:09;;;;;;;5.03;4.73;;;56.30;21.20;;;;;;5074107;28;20193;-69
2023/05/13 10:32:37;;;;;;;5.20;4.90;;;56.50;20.80;;;;;;5073974;28;20401;-68
2023/05/13 10:35:10;;;;;;;6.10;5.70;;;56.60;20.90;;;;;;5073993;28;20789;-68
2023/05/13 10:38:02;;;;;;;6.47;6.07;;;56.80;20.90;;;;;;5073611;28;20419;-68
2023/05/13 10:40:52;;;;;;;5.67;5.27;;;57.00;20.50;;;;;;5073913;28;20408;-68
2023/05/13 10:43:19;;;;;;;6.10;5.60;;;57.00;20.40;;;;;;5073807;28;20411;-68
2023/05/13 10:45:47;;;;;;;6.30;5.83;;;57.10;20.40;;;;;;5073707;28;20447;-68
2023/05/13 10:48:13;;;;;;;7.20;6.60;;;57.20;20.60;;;;;;5073324;28;20420;-68
2023/05/13 10:50:48;;;;;;;17.03;10.57;;;57.40;20.30;;;;;;5073626;28;20811;-68
2023/05/13 10:53:20;;;;;;;10.20;7.37;;;57.60;20.50;;;;;;5073571;28;20391;-68
2023/05/13 10:55:50;;;;;;;5.50;5.20;;;57.70;20.40;;;;;;5073560;28;20411;-69
2023/05/13 10:58:17;;;;;;;5.20;4.90;;;58.00;20.40;;;;;;5073044;28;20400;-69
2023/05/13 11:00:44;;;;;;;5.07;4.77;;;58.50;20.40;;;;;;5073427;28;20495;-68
2023/05/13 11:03:16;;;;;;;6.13;5.63;;;59.10;20.10;;;;;;5073456;28;20773;-68
2023/05/13 11:05:44;;;;;;;5.17;4.87;;;59.40;19.90;;;;;;5073318;28;20536;-68
2023/05/13 11:08:10;;;;;;;5.77;5.13;;;58.80;19.30;;;;;;5072933;28;20424;-68
2023/05/13 11:10:36;;;;;;;5.00;4.70;;;57.40;19.50;;;;;;5073107;28;20404;-68
2023/05/13 11:13:09;;;;;;;5.17;4.83;;;55.50;19.50;;;;;;5073072;28;20484;-68
2023/05/13 11:15:44;;;;;;;5.10;4.80;;;53.30;19.90;;;;;;5073178;28;20154;-68
2023/05/13 11:18:11;;;;;;;4.27;3.97;;;51.20;20.60;;;;;;5072651;28;20416;-68
2023/05/13 11:20:37;;;;;;;5.10;4.70;;;49.80;20.90;;;;;;5073067;28;20432;-68
2023/05/13 11:23:03;;;;;;;5.70;5.30;;;48.70;21.70;;;;;;5072990;28;20404;-68
2023/05/13 11:25:28;;;;;;;5.00;4.60;;;47.90;22.00;;;;;;5072844;28;20383;-68
2023/05/13 11:27:54;;;;;;;4.50;4.20;;;47.40;22.30;;;;;;5072438;28;20181;-67
2023/05/13 11:30:25;;;;;;;4.80;4.40;;;46.70;22.20;;;;;;5072577;28;20170;-67
2023/05/13 11:32:57;;;;;;;4.80;4.40;;;47.40;22.70;;;;;;5072812;28;20168;-67
2023/05/13 11:35:25;;;;;;;4.30;3.90;;;48.80;21.50;;;;;;5072733;28;20386;-68
2023/05/13 11:37:51;;;;;;;4.50;4.20;;;49.60;21.60;;;;;;5071958;28;20458;-67
2023/05/13 11:40:34;;;;;;;4.10;3.80;;;48.80;21.20;;;;;;5072529;28;20811;-67
2023/05/13 11:43:00;;;;;;;4.13;3.83;;;46.70;21.10;;;;;;5072604;28;20162;-67
2023/05/13 11:45:27;;;;;;;3.50;3.30;;;44.70;21.80;;;;;;5072495;28;20884;-67
2023/05/13 11:47:53;;;;;;;3.70;3.43;;;42.50;22.20;;;;;;5071838;28;20393;-66
2023/05/13 11:50:25;;;;;;;5.23;3.67;;;40.40;23.00;;;;;;5072377;28;20371;-67
2023/05/13 11:52:53;;;;;;;3.13;2.60;;;38.20;23.80;;;;;;5072508;28;20756;-66
2023/05/13 11:55:30;;;;;;;3.90;2.73;;;35.00;24.20;;;;;;5072399;28;20379;-69
2023/05/13 11:57:56;;;;;;;2.40;2.20;;;31.70;26.00;;;;;;5071941;28;20415;-68
2023/05/13 12:00:33;;;;;;;3.03;2.47;;;29.50;27.90;;;;;;5072317;28;20405;-68
2023/05/13 12:03:00;;;;;;;2.43;2.20;;;27.30;30.50;;;;;;5072353;28;20404;-68
2023/05/13 12:05:26;;;;;;;5.87;2.00;;;25.70;33.10;;;;;;5072149;28;20404;-68
2023/05/13 12:07:56;;;;;;;2.33;2.13;;;24.40;36.10;;;;;;5071830;28;20416;-68
2023/05/13 12:10:22;;;;;;;4.30;2.23;;;23.40;38.60;;;;;;5072137;28;20408;-68
2023/05/13 12:12:48;;;;;;;2.10;2.00;;;22.30;40.60;;;;;;5072117;28;20408;-68
2023/05/13 12:15:16;;;;;;;3.03;2.17;;;21.70;42.70;;;;;;5071393;28;20444;-68
2023/05/13 12:17:42;;;;;;;2.53;2.33;;;21.30;44.40;;;;;;5071575;28;20190;-68
2023/05/13 12:20:18;;;;;;;2.77;2.10;;;21.00;45.70;;;;;;5073478;28;20400;-68
2023/05/13 12:22:43;;;;;;;3.33;2.77;;;20.80;46.70;;;;;;5091904;28;20410;-68
2023/05/13 12:25:37;;;;;;;2.90;2.50;;;20.80;47.30;;;;;;5073444;28;20423;-68
2023/05/13 12:28:20;;;;;;;3.10;2.87;;;20.50;47.80;;;;;;5091698;28;20204;-68
2023/05/13 12:30:56;;;;;;;2.30;1.70;;;20.50;48.10;;;;;;5091706;28;20917;-68
2023/05/13 12:33:40;;;;;;;2.63;2.43;;;20.40;48.30;;;;;;5092143;28;20411;-68
2023/05/13 12:36:24;;;;;;;3.23;2.40;;;20.40;49.20;;;;;;5091624;28;20439;-68
2023/05/13 12:38:54;;;;;;;2.47;2.27;;;20.30;49.10;;;;;;5091089;28;20730;-68
2023/05/13 12:41:21;;;;;;;2.20;2.00;;;20.50;49.70;;;;;;5091764;28;20918;-68